Time;durP1;ratioP1;P1;durP2;ratioP2;P2;SDS_P1;SDS_P2;PMS_P1;PMS_P2;Temp;Humidity;BMP_temperature;BMP_pressure;BME280_temperature;BME280_humidity;BME280_pressure;Samples;Min_cycle;Max_cycle;Signal;HPM_P1;HPM_P2
2022/12/10 00:00:04;;;;;;;12.43;1.85;;;;;;;;;;5020387;28;20418;-67
2022/12/10 00:02:31;;;;;;;11.70;2.05;;;;;;;;;;5016541;28;20064;-67
2022/12/10 00:04:58;;;;;;;7.05;2.30;;;;;;;;;;5026606;28;20498;-68
2022/12/10 00:07:24;;;;;;;7.85;2.00;;;;;;;;;;5017862;28;20132;-68
2022/12/10 00:09:51;;;;;;;6.35;1.88;;;;;;;;;;5019113;28;20801;-67
2022/12/10 00:12:18;;;;;;;15.13;2.20;;;;;;;;;;5018655;28;20156;-67
2022/12/10 00:14:44;;;;;;;12.88;2.38;;;;;;;;;;5016971;28;20504;-66
2022/12/10 00:17:11;;;;;;;8.75;2.00;;;;;;;;;;5018923;28;20506;-66
2022/12/10 00:19:38;;;;;;;13.80;1.85;;;;;;;;;;5020337;28;20034;-67
2022/12/10 00:22:05;;;;;;;7.15;2.00;;;;;;;;;;5017436;28;20091;-66
2022/12/10 00:24:31;;;;;;;11.45;1.88;;;;;;;;;;5042926;28;20086;-66
2022/12/10 00:26:58;;;;;;;10.43;2.20;;;;;;;;;;5048932;28;20125;-66
2022/12/10 00:29:25;;;;;;;8.98;1.90;;;;;;;;;;5052325;28;20124;-66
2022/12/10 00:31:51;;;;;;;9.52;1.95;;;;;;;;;;5041219;28;20079;-66
2022/12/10 00:34:18;;;;;;;5.72;1.60;;;;;;;;;;5042357;28;20040;-66
2022/12/10 00:36:46;;;;;;;7.30;2.10;;;;;;;;;;5049346;28;20056;-66
2022/12/10 00:39:14;;;;;;;5.72;1.73;;;;;;;;;;5040316;28;20082;-66
2022/12/10 00:41:41;;;;;;;11.55;2.45;;;;;;;;;;5043948;28;20060;-66
2022/12/10 00:44:08;;;;;;;9.00;2.20;;;;;;;;;;5056609;28;20033;-67
2022/12/10 00:46:34;;;;;;;9.02;2.35;;;;;;;;;;5041681;28;20041;-67
2022/12/10 00:49:01;;;;;;;7.97;1.80;;;;;;;;;;5042910;28;20044;-67
2022/12/10 00:51:29;;;;;;;11.40;2.13;;;;;;;;;;5042392;28;20029;-67
2022/12/10 00:53:57;;;;;;;8.65;2.28;;;;;;;;;;5047539;28;20575;-68
2022/12/10 00:56:28;;;;;;;7.60;2.22;;;;;;;;;;5025156;28;20175;-67
2022/12/10 00:58:55;;;;;;;9.18;2.40;;;;;;;;;;5044483;28;20045;-67
2022/12/10 01:01:22;;;;;;;10.45;2.03;;;;;;;;;;5044440;28;20052;-67
2022/12/10 01:03:49;;;;;;;8.88;2.45;;;;;;;;;;5018944;28;20049;-67
2022/12/10 01:06:23;;;;;;;9.27;2.95;;;;;;;;;;5020373;28;20083;-67
2022/12/10 01:08:50;;;;;;;13.27;3.17;;;;;;;;;;5027821;28;20033;-67
2022/12/10 01:11:18;;;;;;;10.25;2.40;;;;;;;;;;5020017;28;20029;-68
2022/12/10 01:13:45;;;;;;;11.00;2.50;;;;;;;;;;5018407;28;20049;-67
2022/12/10 01:16:13;;;;;;;9.85;2.10;;;;;;;;;;5020585;28;20541;-68
2022/12/10 01:18:40;;;;;;;6.28;1.70;;;;;;;;;;5016939;28;20045;-67
2022/12/10 01:21:11;;;;;;;8.65;2.47;;;;;;;;;;5019026;28;20084;-67
2022/12/10 01:23:39;;;;;;;9.88;2.53;;;;;;;;;;5017409;28;20038;-67
2022/12/10 01:26:08;;;;;;;5.53;2.13;;;;;;;;;;5018186;28;20046;-68
2022/12/10 01:28:35;;;;;;;8.00;2.90;;;;;;;;;;5018638;28;20778;-67
2022/12/10 01:31:03;;;;;;;12.80;3.15;;;;;;;;;;5017993;28;20037;-67
2022/12/10 01:33:29;;;;;;;7.72;2.90;;;;;;;;;;5031703;28;20057;-67
2022/12/10 01:35:56;;;;;;;8.30;3.10;;;;;;;;;;5016664;28;20611;-67
2022/12/10 01:38:23;;;;;;;11.00;3.00;;;;;;;;;;5018233;28;20056;-67
2022/12/10 01:40:50;;;;;;;9.60;3.65;;;;;;;;;;5019139;28;20754;-66
2022/12/10 01:43:16;;;;;;;31.33;4.90;;;;;;;;;;5029270;28;20038;-68
2022/12/10 01:45:43;;;;;;;18.50;4.10;;;;;;;;;;5017394;28;20558;-67
2022/12/10 01:48:10;;;;;;;18.63;3.33;;;;;;;;;;5019282;28;20053;-66
2022/12/10 01:50:37;;;;;;;24.67;4.63;;;;;;;;;;5017443;28;20037;-66
2022/12/10 01:53:04;;;;;;;19.30;3.97;;;;;;;;;;5031271;28;20437;-66
2022/12/10 01:55:56;;;;;;;15.70;5.50;;;;;;;;;;5031117;28;20033;-66
2022/12/10 01:58:23;;;;;;;17.13;5.78;;;;;;;;;;5016301;28;20425;-66
2022/12/10 02:01:03;;;;;;;13.93;4.53;;;;;;;;;;5020639;28;20060;-67
2022/12/10 02:03:48;;;;;;;18.52;4.38;;;;;;;;;;5017591;28;20128;-66
2022/12/10 02:06:33;;;;;;;14.52;4.13;;;;;;;;;;5017996;28;20052;-67
2022/12/10 02:09:03;;;;;;;11.13;4.45;;;;;;;;;;5019611;28;20048;-67
2022/12/10 02:11:34;;;;;;;17.73;3.67;;;;;;;;;;5016299;28;20111;-68
2022/12/10 02:14:08;;;;;;;13.13;4.53;;;;;;;;;;5018461;28;20049;-68
2022/12/10 02:16:38;;;;;;;12.32;3.97;;;;;;;;;;5015720;28;20091;-66
2022/12/10 02:19:13;;;;;;;15.93;4.05;;;;;;;;;;5015862;28;20060;-66
2022/12/10 02:21:41;;;;;;;13.50;4.30;;;;;;;;;;5016311;28;20049;-68
2022/12/10 02:24:13;;;;;;;15.10;4.90;;;;;;;;;;5017429;28;20072;-66
2022/12/10 02:26:39;;;;;;;13.88;4.65;;;;;;;;;;5016963;28;20049;-68
2022/12/10 02:29:17;;;;;;;24.08;5.00;;;;;;;;;;5017062;28;20041;-69
2022/12/10 02:31:47;;;;;;;9.35;4.45;;;;;;;;;;5016728;28;20045;-68
2022/12/10 02:34:14;;;;;;;10.50;3.60;;;;;;;;;;5031682;28;20040;-68
2022/12/10 02:36:44;;;;;;;12.73;4.28;;;;;;;;;;5016897;28;20046;-67
2022/12/10 02:39:12;;;;;;;12.38;4.20;;;;;;;;;;5015380;28;20061;-66
2022/12/10 02:41:41;;;;;;;11.90;4.20;;;;;;;;;;5015252;28;20048;-67
2022/12/10 02:44:10;;;;;;;13.70;3.67;;;;;;;;;;5049744;28;20041;-67
2022/12/10 02:46:38;;;;;;;11.25;3.60;;;;;;;;;;5016388;28;20042;-68
2022/12/10 02:49:05;;;;;;;11.45;3.45;;;;;;;;;;5017663;28;20498;-66
2022/12/10 02:51:32;;;;;;;10.30;3.10;;;;;;;;;;5015778;28;20030;-67
2022/12/10 02:54:03;;;;;;;8.30;3.22;;;;;;;;;;5041651;28;20079;-68
2022/12/10 02:56:45;;;;;;;7.35;3.20;;;;;;;;;;5026874;28;20077;-68
2022/12/10 02:59:24;;;;;;;7.63;2.85;;;;;;;;;;5015829;28;20095;-66
2022/12/10 03:02:03;;;;;;;11.70;2.63;;;;;;;;;;5015962;28;20064;-67
2022/12/10 03:04:34;;;;;;;15.98;2.83;;;;;;;;;;5015368;28;20045;-67
2022/12/10 03:07:07;;;;;;;10.80;2.60;;;;;;;;;;5016043;28;20052;-68
2022/12/10 03:09:52;;;;;;;11.18;2.78;;;;;;;;;;5032215;28;20175;-67
2022/12/10 03:12:25;;;;;;;5.05;2.35;;;;;;;;;;5043986;28;20103;-66
2022/12/10 03:14:52;;;;;;;8.50;3.30;;;;;;;;;;5029475;28;20064;-67
2022/12/10 03:17:19;;;;;;;7.22;2.58;;;;;;;;;;5038039;28;20042;-68
2022/12/10 03:20:08;;;;;;;7.45;2.67;;;;;;;;;;5024661;28;20037;-66
2022/12/10 03:22:35;;;;;;;6.60;2.63;;;;;;;;;;5020352;28;20543;-61
2022/12/10 03:25:02;;;;;;;6.05;2.60;;;;;;;;;;5030545;28;20075;-65
2022/12/10 03:27:30;;;;;;;10.27;3.33;;;;;;;;;;5030522;28;20542;-65
2022/12/10 03:29:59;;;;;;;8.13;3.03;;;;;;;;;;5028252;28;20033;-65
2022/12/10 03:32:27;;;;;;;8.23;2.95;;;;;;;;;;5030520;28;21206;-65
2022/12/10 03:34:57;;;;;;;10.68;3.20;;;;;;;;;;5034317;28;20064;-65
2022/12/10 03:37:24;;;;;;;13.55;3.33;;;;;;;;;;5033523;28;20049;-66
2022/12/10 03:39:52;;;;;;;7.55;3.13;;;;;;;;;;5034774;28;20041;-69
2022/12/10 03:42:19;;;;;;;5.85;2.55;;;;;;;;;;5016136;28;20355;-69
2022/12/10 03:44:45;;;;;;;9.73;3.08;;;;;;;;;;5034292;28;20037;-66
2022/12/10 03:47:14;;;;;;;8.50;3.08;;;;;;;;;;5034540;28;20044;-67
2022/12/10 03:49:42;;;;;;;7.40;3.55;;;;;;;;;;5031544;28;20072;-67
2022/12/10 03:52:12;;;;;;;12.20;3.38;;;;;;;;;;5034103;28;20036;-66
2022/12/10 03:54:38;;;;;;;9.00;3.70;;;;;;;;;;5033342;28;21917;-67
2022/12/10 03:57:05;;;;;;;6.28;3.63;;;;;;;;;;5016739;28;20102;-68
2022/12/10 03:59:32;;;;;;;6.40;3.05;;;;;;;;;;5019959;28;20045;-66
2022/12/10 04:01:59;;;;;;;8.25;3.45;;;;;;;;;;5051223;28;20529;-66
2022/12/10 04:04:26;;;;;;;18.55;3.83;;;;;;;;;;5017951;28;20033;-67
2022/12/10 04:06:52;;;;;;;7.75;3.40;;;;;;;;;;5035198;28;20126;-66
2022/12/10 04:09:39;;;;;;;7.75;3.90;;;;;;;;;;5060471;28;20048;-67
2022/12/10 04:12:06;;;;;;;6.00;2.80;;;;;;;;;;5060738;28;20075;-65
2022/12/10 04:17:17;;;;;;;8.65;3.05;;;;;;;;;;5062226;28;20052;-65
2022/12/10 04:19:44;;;;;;;10.68;2.65;;;;;;;;;;5061560;28;20413;-65
2022/12/10 04:27:52;;;;;;;6.25;2.17;;;;;;;;;;5006076;28;20114;-65
2022/12/10 04:30:19;;;;;;;6.22;2.40;;;;;;;;;;5061813;28;20040;-65
2022/12/10 04:32:46;;;;;;;12.07;2.85;;;;;;;;;;5042067;28;21525;-67
2022/12/10 04:35:12;;;;;;;9.50;2.30;;;;;;;;;;5056322;28;20037;-66
2022/12/10 04:37:39;;;;;;;5.95;2.40;;;;;;;;;;5059105;28;20125;-69
2022/12/10 04:40:06;;;;;;;6.90;2.40;;;;;;;;;;5053764;28;20822;-66
2022/12/10 04:42:33;;;;;;;8.52;2.70;;;;;;;;;;5057665;28;20040;-68
2022/12/10 04:45:00;;;;;;;6.85;2.38;;;;;;;;;;5058766;28;20680;-66
2022/12/10 04:47:26;;;;;;;5.03;2.33;;;;;;;;;;5052615;28;20041;-66
2022/12/10 04:49:53;;;;;;;7.25;2.05;;;;;;;;;;5038532;28;20091;-66
2022/12/10 04:52:20;;;;;;;6.95;2.30;;;;;;;;;;5036975;28;20047;-66
2022/12/10 04:54:46;;;;;;;7.75;2.38;;;;;;;;;;5038381;28;20666;-65
2022/12/10 04:57:14;;;;;;;4.82;2.45;;;;;;;;;;5041798;28;20032;-67
2022/12/10 04:59:40;;;;;;;5.40;2.15;;;;;;;;;;5062053;28;20037;-65
2022/12/10 05:02:07;;;;;;;6.43;2.45;;;;;;;;;;5055678;28;20408;-65
2022/12/10 05:04:34;;;;;;;4.28;1.90;;;;;;;;;;5039499;28;20919;-66
2022/12/10 05:07:01;;;;;;;10.85;2.60;;;;;;;;;;5038388;28;20041;-66
2022/12/10 05:09:28;;;;;;;7.32;2.55;;;;;;;;;;5037334;28;20124;-65
2022/12/10 05:11:54;;;;;;;14.27;2.40;;;;;;;;;;5037076;28;20047;-65
2022/12/10 05:14:21;;;;;;;15.98;3.10;;;;;;;;;;5039030;28;20057;-65
2022/12/10 05:16:50;;;;;;;8.60;2.58;;;;;;;;;;5049814;28;20034;-65
2022/12/10 05:19:23;;;;;;;4.47;2.45;;;;;;;;;;5058228;28;20543;-64
2022/12/10 05:24:35;;;;;;;7.05;2.42;;;;;;;;;;5018208;28;20044;-65
2022/12/10 05:27:02;;;;;;;7.45;3.10;;;;;;;;;;5032607;28;20115;-62
2022/12/10 05:29:29;;;;;;;18.02;3.80;;;;;;;;;;5049471;28;20037;-65
2022/12/10 05:31:55;;;;;;;8.02;3.35;;;;;;;;;;5050400;28;20096;-65
2022/12/10 05:34:22;;;;;;;9.43;2.70;;;;;;;;;;5051238;28;20107;-66
2022/12/10 05:36:49;;;;;;;5.00;2.30;;;;;;;;;;5030760;28;20468;-67
2022/12/10 05:39:16;;;;;;;3.30;1.42;;;;;;;;;;5018644;28;20064;-66
2022/12/10 05:41:43;;;;;;;5.53;2.50;;;;;;;;;;5017269;28;20088;-66
2022/12/10 05:44:10;;;;;;;6.32;2.47;;;;;;;;;;5042081;28;20083;-67
2022/12/10 05:46:37;;;;;;;4.35;2.15;;;;;;;;;;5031986;28;20606;-65
2022/12/10 05:49:05;;;;;;;7.10;2.83;;;;;;;;;;5017485;28;20885;-66
2022/12/10 05:51:32;;;;;;;7.13;2.30;;;;;;;;;;5049561;28;20622;-66
2022/12/10 05:54:01;;;;;;;10.95;2.63;;;;;;;;;;5050870;28;20840;-67
2022/12/10 05:56:28;;;;;;;4.45;2.38;;;;;;;;;;5017378;28;20033;-65
2022/12/10 05:58:56;;;;;;;7.50;2.50;;;;;;;;;;5017643;28;20129;-67
2022/12/10 06:01:24;;;;;;;5.30;2.25;;;;;;;;;;5024258;28;20044;-67
2022/12/10 06:03:52;;;;;;;12.45;2.60;;;;;;;;;;5033190;28;20498;-66
2022/12/10 06:06:26;;;;;;;18.65;2.85;;;;;;;;;;5050893;28;20045;-69
2022/12/10 06:08:53;;;;;;;5.10;2.28;;;;;;;;;;5037032;28;20037;-66
2022/12/10 06:11:20;;;;;;;9.38;2.40;;;;;;;;;;5053570;28;20409;-67
2022/12/10 06:13:47;;;;;;;5.60;2.10;;;;;;;;;;5037513;28;20053;-67
2022/12/10 06:16:15;;;;;;;11.40;2.85;;;;;;;;;;5036801;28;20041;-67
2022/12/10 06:18:42;;;;;;;8.15;3.42;;;;;;;;;;5038311;28;20044;-65
2022/12/10 06:21:10;;;;;;;12.30;4.53;;;;;;;;;;5037561;28;20106;-66
2022/12/10 06:23:37;;;;;;;6.15;3.00;;;;;;;;;;5036146;28;20040;-66
2022/12/10 06:26:15;;;;;;;9.52;2.38;;;;;;;;;;5035112;28;20083;-65
2022/12/10 06:28:42;;;;;;;9.07;3.00;;;;;;;;;;5036037;28;20037;-66
2022/12/10 06:31:08;;;;;;;8.85;3.15;;;;;;;;;;5036279;28;20058;-65
2022/12/10 06:33:35;;;;;;;7.05;3.22;;;;;;;;;;5037394;28;20053;-67
2022/12/10 06:36:04;;;;;;;7.05;2.92;;;;;;;;;;5041326;28;20477;-65
2022/12/10 06:38:31;;;;;;;22.10;3.28;;;;;;;;;;5034080;28;20671;-67
2022/12/10 06:40:58;;;;;;;7.82;3.10;;;;;;;;;;5037655;28;20041;-66
2022/12/10 06:43:25;;;;;;;8.23;3.47;;;;;;;;;;5036681;28;20029;-67
2022/12/10 06:45:51;;;;;;;3.30;1.92;;;;;;;;;;5047024;28;20094;-66
2022/12/10 06:48:18;;;;;;;7.90;2.97;;;;;;;;;;5052445;28;20110;-66
2022/12/10 06:50:45;;;;;;;10.18;3.30;;;;;;;;;;5036201;28;20043;-65
2022/12/10 06:53:12;;;;;;;10.20;3.72;;;;;;;;;;5045752;28;20123;-65
2022/12/10 06:55:38;;;;;;;7.32;3.47;;;;;;;;;;5037321;28;20128;-67
2022/12/10 06:58:05;;;;;;;7.57;2.58;;;;;;;;;;5038012;28;20128;-65
2022/12/10 07:00:32;;;;;;;13.63;3.40;;;;;;;;;;5035252;28;20036;-65
2022/12/10 07:02:59;;;;;;;9.88;2.55;;;;;;;;;;5035554;28;20122;-65
2022/12/10 07:05:25;;;;;;;4.82;2.67;;;;;;;;;;5034278;28;20509;-65
2022/12/10 07:07:52;;;;;;;6.05;2.03;;;;;;;;;;5048743;28;20706;-65
2022/12/10 07:10:19;;;;;;;9.57;3.15;;;;;;;;;;5054862;28;20086;-65
2022/12/10 07:12:45;;;;;;;6.57;2.95;;;;;;;;;;5055652;28;20053;-65
2022/12/10 07:15:12;;;;;;;11.05;2.63;;;;;;;;;;5040741;28;20669;-65
2022/12/10 07:17:39;;;;;;;15.73;3.55;;;;;;;;;;5037219;28;20460;-65
2022/12/10 07:20:07;;;;;;;9.57;3.38;;;;;;;;;;5039706;28;20037;-64
2022/12/10 07:22:34;;;;;;;5.40;3.05;;;;;;;;;;5039408;28;20069;-64
2022/12/10 07:25:03;;;;;;;5.88;2.85;;;;;;;;;;5055222;28;20732;-66
2022/12/10 07:27:31;;;;;;;8.48;3.15;;;;;;;;;;5041491;28;20037;-66
2022/12/10 07:29:57;;;;;;;7.82;3.47;;;;;;;;;;5038998;28;20802;-66
2022/12/10 07:32:24;;;;;;;7.93;2.90;;;;;;;;;;5040459;28;20489;-67
2022/12/10 07:34:51;;;;;;;9.82;2.95;;;;;;;;;;5034310;28;20048;-66
2022/12/10 07:37:17;;;;;;;13.57;2.90;;;;;;;;;;5020968;28;20073;-66
2022/12/10 07:39:44;;;;;;;6.63;2.85;;;;;;;;;;5020055;28;20061;-67
2022/12/10 07:42:12;;;;;;;7.68;2.80;;;;;;;;;;5039376;28;20037;-66
2022/12/10 07:44:40;;;;;;;5.03;2.67;;;;;;;;;;5030750;28;20518;-66
2022/12/10 07:47:06;;;;;;;8.80;2.60;;;;;;;;;;5021447;28;20041;-66
2022/12/10 07:49:33;;;;;;;6.18;2.75;;;;;;;;;;5020421;28;20069;-66
2022/12/10 07:52:00;;;;;;;3.17;1.50;;;;;;;;;;5019657;28;20060;-66
2022/12/10 07:54:27;;;;;;;4.55;2.05;;;;;;;;;;5047359;28;20060;-65
2022/12/10 07:56:53;;;;;;;5.97;1.98;;;;;;;;;;5021833;28;20044;-66
2022/12/10 07:59:20;;;;;;;5.43;2.53;;;;;;;;;;5018793;28;20135;-66
2022/12/10 08:01:49;;;;;;;9.23;2.10;;;;;;;;;;5020380;28;21705;-65
2022/12/10 08:04:16;;;;;;;3.45;1.83;;;;;;;;;;5020484;28;20128;-67
2022/12/10 08:06:42;;;;;;;5.32;2.60;;;;;;;;;;5018369;28;20041;-67
2022/12/10 08:09:10;;;;;;;8.88;1.90;;;;;;;;;;5019470;28;20037;-65
2022/12/10 08:11:38;;;;;;;3.85;1.70;;;;;;;;;;5019393;28;20036;-65
2022/12/10 08:14:05;;;;;;;3.83;1.88;;;;;;;;;;5035430;28;20049;-66
2022/12/10 08:16:32;;;;;;;5.85;2.03;;;;;;;;;;5026958;28;20116;-65
2022/12/10 08:19:18;;;;;;;4.47;2.20;;;;;;;;;;5058270;28;20048;-66
2022/12/10 08:21:44;;;;;;;6.20;2.45;;;;;;;;;;5054345;28;20110;-66
2022/12/10 08:24:11;;;;;;;5.47;2.10;;;;;;;;;;5054949;28;20550;-65
2022/12/10 08:26:38;;;;;;;6.30;2.35;;;;;;;;;;5065795;28;20536;-66
2022/12/10 08:29:05;;;;;;;6.07;2.22;;;;;;;;;;5056943;28;20047;-67
2022/12/10 08:31:31;;;;;;;5.57;2.28;;;;;;;;;;5052830;28;20052;-66
2022/12/10 08:33:58;;;;;;;5.35;1.83;;;;;;;;;;5057159;28;20084;-66
2022/12/10 08:36:26;;;;;;;7.78;2.38;;;;;;;;;;5057430;28;20036;-66
2022/12/10 08:38:53;;;;;;;4.60;1.80;;;;;;;;;;5037870;28;20036;-66
2022/12/10 08:41:21;;;;;;;14.32;2.75;;;;;;;;;;5051022;28;20483;-65
2022/12/10 08:43:48;;;;;;;3.75;1.80;;;;;;;;;;5057942;28;20037;-66
2022/12/10 08:46:15;;;;;;;4.38;1.77;;;;;;;;;;5057723;28;20049;-66
2022/12/10 08:48:42;;;;;;;4.70;2.10;;;;;;;;;;5054998;28;20060;-65
2022/12/10 08:51:11;;;;;;;5.45;2.20;;;;;;;;;;5027320;28;20156;-66
2022/12/10 08:53:38;;;;;;;4.35;1.80;;;;;;;;;;5016206;28;20138;-66
2022/12/10 08:56:05;;;;;;;7.13;2.22;;;;;;;;;;5017233;28;20040;-66
2022/12/10 08:58:33;;;;;;;8.70;1.90;;;;;;;;;;5020973;28;20044;-65
2022/12/10 09:01:01;;;;;;;5.53;1.70;;;;;;;;;;5039384;28;20080;-66
2022/12/10 09:03:27;;;;;;;5.07;2.10;;;;;;;;;;5039714;28;20036;-66
2022/12/10 09:05:54;;;;;;;4.45;1.85;;;;;;;;;;5039684;28;20072;-66
2022/12/10 09:08:21;;;;;;;5.35;2.67;;;;;;;;;;5053077;28;20040;-65
2022/12/10 09:10:47;;;;;;;2.25;1.30;;;;;;;;;;5054897;28;20049;-65
2022/12/10 09:13:14;;;;;;;7.28;2.30;;;;;;;;;;5039473;28;20045;-65
2022/12/10 09:15:49;;;;;;;3.08;1.50;;;;;;;;;;5038535;28;20993;-66
2022/12/10 09:18:16;;;;;;;4.57;1.95;;;;;;;;;;5039750;28;20079;-65
2022/12/10 09:20:43;;;;;;;4.15;1.27;;;;;;;;;;5040114;28;20158;-65
2022/12/10 09:23:10;;;;;;;3.20;1.38;;;;;;;;;;5037245;28;20110;-65
2022/12/10 09:25:36;;;;;;;4.68;1.80;;;;;;;;;;5054184;28;20064;-66
2022/12/10 09:28:03;;;;;;;3.80;1.65;;;;;;;;;;5038036;28;20397;-65
2022/12/10 09:30:29;;;;;;;6.32;1.35;;;;;;;;;;5052143;28;20053;-65
2022/12/10 09:32:56;;;;;;;4.10;1.48;;;;;;;;;;5039755;28;20087;-65
2022/12/10 09:35:23;;;;;;;4.75;1.42;;;;;;;;;;5036899;28;20029;-65
2022/12/10 09:37:51;;;;;;;3.28;1.58;;;;;;;;;;5036598;28;20076;-65
2022/12/10 09:40:22;;;;;;;4.35;1.70;;;;;;;;;;5054137;28;20044;-65
2022/12/10 09:43:05;;;;;;;3.60;1.58;;;;;;;;;;5038202;28;20032;-65
2022/12/10 09:45:58;;;;;;;3.17;1.63;;;;;;;;;;5051494;28;20045;-64
2022/12/10 09:48:24;;;;;;;6.30;1.55;;;;;;;;;;5017378;28;20043;-64
2022/12/10 09:51:10;;;;;;;5.03;1.77;;;;;;;;;;5031592;28;20033;-65
2022/12/10 09:53:37;;;;;;;6.45;1.58;;;;;;;;;;5032561;28;20061;-65
2022/12/10 09:56:04;;;;;;;3.75;1.73;;;;;;;;;;5019656;28;20209;-64
2022/12/10 09:58:31;;;;;;;8.23;2.13;;;;;;;;;;5037289;28;20056;-64
2022/12/10 10:01:02;;;;;;;4.32;1.90;;;;;;;;;;5050841;28;20033;-65
2022/12/10 10:03:32;;;;;;;6.00;1.95;;;;;;;;;;5017449;28;20589;-65
2022/12/10 10:05:58;;;;;;;3.75;1.75;;;;;;;;;;5017132;28;20061;-66
2022/12/10 10:08:30;;;;;;;3.63;1.40;;;;;;;;;;5017269;28;20133;-66
2022/12/10 10:10:57;;;;;;;3.72;1.08;;;;;;;;;;5049797;28;20771;-67
2022/12/10 10:13:33;;;;;;;1.55;0.70;;;;;;;;;;5022721;28;20056;-68
2022/12/10 10:16:18;;;;;;;2.85;1.10;;;;;;;;;;5017808;28;20093;-67
2022/12/10 10:18:47;;;;;;;4.47;1.52;;;;;;;;;;5029623;28;20110;-68
2022/12/10 10:21:25;;;;;;;4.45;1.20;;;;;;;;;;5025899;28;20044;-68
2022/12/10 10:23:51;;;;;;;1.67;0.73;;;;;;;;;;5025122;28;20054;-68
2022/12/10 10:26:18;;;;;;;5.72;1.30;;;;;;;;;;5049695;28;20095;-67
2022/12/10 10:28:48;;;;;;;3.00;1.00;;;;;;;;;;5018586;28;20152;-67
2022/12/10 10:31:24;;;;;;;4.65;1.25;;;;;;;;;;5032253;28;20723;-66
2022/12/10 10:33:58;;;;;;;4.85;1.23;;;;;;;;;;5036913;28;20053;-67
2022/12/10 10:36:29;;;;;;;3.40;1.10;;;;;;;;;;5036836;28;20403;-68
2022/12/10 10:38:56;;;;;;;4.32;1.08;;;;;;;;;;5052149;28;20549;-66
2022/12/10 10:41:25;;;;;;;2.20;0.80;;;;;;;;;;5035052;28;20493;-66
2022/12/10 10:43:54;;;;;;;2.83;1.08;;;;;;;;;;5036385;28;20136;-66
2022/12/10 10:46:24;;;;;;;2.55;0.95;;;;;;;;;;5057222;28;20061;-67
2022/12/10 10:48:51;;;;;;;3.13;0.90;;;;;;;;;;5037244;28;20041;-67
2022/12/10 10:51:25;;;;;;;2.13;0.93;;;;;;;;;;5037067;28;20127;-67
2022/12/10 10:53:54;;;;;;;3.08;1.20;;;;;;;;;;5036143;28;20589;-67
2022/12/10 10:56:39;;;;;;;3.33;0.95;;;;;;;;;;5037098;28;20181;-67
2022/12/10 10:59:25;;;;;;;2.80;1.00;;;;;;;;;;5042493;28;20084;-67
2022/12/10 11:01:58;;;;;;;2.35;0.88;;;;;;;;;;5022712;28;20482;-69
2022/12/10 11:04:46;;;;;;;2.63;0.93;;;;;;;;;;5038520;28;20037;-68
2022/12/10 11:07:20;;;;;;;3.70;1.30;;;;;;;;;;5016781;28;20275;-67
2022/12/10 11:09:47;;;;;;;3.70;1.05;;;;;;;;;;5017529;28;20108;-70
2022/12/10 11:12:29;;;;;;;3.13;1.30;;;;;;;;;;5017502;28;20071;-67
2022/12/10 11:14:55;;;;;;;6.13;1.70;;;;;;;;;;5016755;28;20820;-68
2022/12/10 11:17:23;;;;;;;4.18;1.35;;;;;;;;;;5016334;28;20866;-67
2022/12/10 11:19:56;;;;;;;6.07;1.77;;;;;;;;;;5015585;28;20041;-67
2022/12/10 11:22:28;;;;;;;3.97;1.67;;;;;;;;;;5017970;28;20516;-70
2022/12/10 11:24:54;;;;;;;3.65;1.52;;;;;;;;;;5048078;28;20081;-68
2022/12/10 11:27:33;;;;;;;5.85;2.03;;;;;;;;;;5015568;28;20053;-67
2022/12/10 11:30:22;;;;;;;4.30;1.38;;;;;;;;;;5016801;28;20137;-67
2022/12/10 11:33:07;;;;;;;4.78;1.70;;;;;;;;;;5016867;28;20064;-67
2022/12/10 11:35:34;;;;;;;3.70;1.20;;;;;;;;;;5018158;28;20075;-67
2022/12/10 11:38:00;;;;;;;2.63;1.33;;;;;;;;;;5017492;28;20794;-67
2022/12/10 11:40:37;;;;;;;3.72;1.20;;;;;;;;;;5016199;28;20037;-67
2022/12/10 11:43:10;;;;;;;6.00;1.52;;;;;;;;;;5017753;28;20091;-67
2022/12/10 11:45:49;;;;;;;2.65;1.05;;;;;;;;;;5016747;28;20131;-67
2022/12/10 11:48:16;;;;;;;4.78;1.45;;;;;;;;;;5017442;28;20124;-67
2022/12/10 11:50:50;;;;;;;3.70;1.17;;;;;;;;;;5017653;28;20032;-67
2022/12/10 11:53:36;;;;;;;3.90;1.30;;;;;;;;;;5020413;28;20054;-66
2022/12/10 11:56:02;;;;;;;2.88;1.05;;;;;;;;;;5019958;28;20564;-65
2022/12/10 11:58:48;;;;;;;3.05;0.93;;;;;;;;;;5019391;28;20033;-67
2022/12/10 12:01:14;;;;;;;2.42;0.95;;;;;;;;;;5019707;28;20046;-66
2022/12/10 12:03:50;;;;;;;2.53;1.00;;;;;;;;;;5020420;28;20038;-66
2022/12/10 12:06:36;;;;;;;3.50;0.90;;;;;;;;;;5024242;28;20124;-67
2022/12/10 12:09:04;;;;;;;3.15;0.90;;;;;;;;;;5027777;28;20517;-66
2022/12/10 12:11:49;;;;;;;3.90;1.17;;;;;;;;;;5050921;28;20056;-66
2022/12/10 12:14:16;;;;;;;2.90;0.95;;;;;;;;;;5020356;28;20257;-67
2022/12/10 12:16:49;;;;;;;3.10;0.93;;;;;;;;;;5022635;28;20075;-67
2022/12/10 12:19:19;;;;;;;3.00;1.17;;;;;;;;;;5039710;28;20172;-67
2022/12/10 12:21:48;;;;;;;2.13;0.75;;;;;;;;;;5028464;28;20049;-67
2022/12/10 12:24:35;;;;;;;3.30;1.00;;;;;;;;;;5020328;28;20041;-66
2022/12/10 12:27:08;;;;;;;2.03;0.60;;;;;;;;;;5021039;28;20056;-67
2022/12/10 12:29:42;;;;;;;2.35;0.75;;;;;;;;;;5020039;28;20550;-68
2022/12/10 12:32:14;;;;;;;3.00;0.82;;;;;;;;;;5021391;28;20496;-67
2022/12/10 12:34:59;;;;;;;2.50;0.85;;;;;;;;;;5050327;28;20045;-67
2022/12/10 12:37:30;;;;;;;3.17;0.93;;;;;;;;;;5019581;28;20050;-68
2022/12/10 12:40:15;;;;;;;2.28;0.80;;;;;;;;;;5019898;28;20395;-67
2022/12/10 12:43:05;;;;;;;2.90;1.02;;;;;;;;;;5019825;28;20037;-66
2022/12/10 12:45:43;;;;;;;2.38;0.85;;;;;;;;;;5016642;28;20163;-68
2022/12/10 12:48:22;;;;;;;4.25;0.70;;;;;;;;;;5031516;28;20169;-67
2022/12/10 12:51:07;;;;;;;3.42;0.80;;;;;;;;;;5029228;28;20112;-66
2022/12/10 12:53:34;;;;;;;2.25;0.85;;;;;;;;;;5051185;28;20056;-67
2022/12/10 12:56:04;;;;;;;2.75;0.88;;;;;;;;;;5019345;28;20029;-66
2022/12/10 12:58:49;;;;;;;2.90;0.93;;;;;;;;;;5049479;28;20599;-66
2022/12/10 13:01:27;;;;;;;1.88;0.73;;;;;;;;;;5034941;28;20470;-66
2022/12/10 13:03:54;;;;;;;2.60;0.90;;;;;;;;;;5067831;28;20047;-67
2022/12/10 13:06:23;;;;;;;2.35;0.82;;;;;;;;;;5077161;28;20048;-66
2022/12/10 13:08:58;;;;;;;1.90;0.60;;;;;;;;;;5077522;28;20036;-69
2022/12/10 13:11:31;;;;;;;2.00;0.68;;;;;;;;;;5056745;28;20101;-62
2022/12/10 13:14:09;;;;;;;2.15;0.88;;;;;;;;;;5077511;28;20075;-62
2022/12/10 13:16:45;;;;;;;2.38;0.80;;;;;;;;;;5057042;28;20421;-65
2022/12/10 13:19:26;;;;;;;2.45;0.80;;;;;;;;;;5077085;28;20138;-65
2022/12/10 13:22:31;;;;;;;2.55;0.68;;;;;;;;;;5060408;28;20585;-65
2022/12/10 13:25:17;;;;;;;1.90;0.70;;;;;;;;;;5074964;28;20453;-66
2022/12/10 13:27:57;;;;;;;1.17;0.57;;;;;;;;;;5039582;28;20044;-65
2022/12/10 13:30:30;;;;;;;2.65;0.80;;;;;;;;;;5051127;28;20032;-66
2022/12/10 13:33:26;;;;;;;2.53;0.80;;;;;;;;;;5060826;28;20131;-66
2022/12/10 13:35:56;;;;;;;1.55;0.50;;;;;;;;;;5044942;28;20067;-66
2022/12/10 13:38:24;;;;;;;5.88;0.90;;;;;;;;;;5055903;28;20044;-65
2022/12/10 13:46:54;;;;;;;1.42;0.60;;;;;;;;;;4966650;28;20081;-64
2022/12/10 13:49:22;;;;;;;1.98;0.70;;;;;;;;;;4977274;28;20070;-64
2022/12/10 13:51:58;;;;;;;1.73;0.50;;;;;;;;;;4977855;28;20042;-63
2022/12/10 13:54:43;;;;;;;1.48;0.50;;;;;;;;;;4989273;28;20044;-65
2022/12/10 13:57:31;;;;;;;1.92;0.68;;;;;;;;;;5039266;28;20110;-65
2022/12/10 14:00:18;;;;;;;1.27;0.35;;;;;;;;;;5027602;28;20120;-64
2022/12/10 14:03:11;;;;;;;1.27;0.50;;;;;;;;;;5031141;28;20052;-65
2022/12/10 14:05:40;;;;;;;2.78;0.60;;;;;;;;;;5024642;28;20120;-66
2022/12/10 14:08:10;;;;;;;2.08;0.77;;;;;;;;;;5017907;28;20038;-66
2022/12/10 14:10:37;;;;;;;2.47;0.75;;;;;;;;;;5042839;28;20041;-65
2022/12/10 14:13:05;;;;;;;1.50;0.52;;;;;;;;;;5041585;28;20110;-66
2022/12/10 14:15:35;;;;;;;1.05;0.43;;;;;;;;;;5037916;28;20029;-65
2022/12/10 14:18:03;;;;;;;1.40;0.50;;;;;;;;;;5037215;28;20045;-65
2022/12/10 14:20:35;;;;;;;2.33;0.80;;;;;;;;;;5036750;28;20041;-65
2022/12/10 14:25:52;;;;;;;3.00;0.52;;;;;;;;;;5034441;28;20047;-66
2022/12/10 14:28:19;;;;;;;2.38;0.70;;;;;;;;;;5017692;28;20100;-66
2022/12/10 14:30:47;;;;;;;2.10;0.80;;;;;;;;;;5017301;28;20523;-66
2022/12/10 14:33:16;;;;;;;1.42;0.60;;;;;;;;;;5057629;28;20048;-65
2022/12/10 14:35:47;;;;;;;2.70;0.82;;;;;;;;;;5035746;28;20127;-66
2022/12/10 14:38:18;;;;;;;2.63;0.73;;;;;;;;;;5037624;28;20068;-63
2022/12/10 14:40:45;;;;;;;1.95;0.77;;;;;;;;;;5036521;28;20040;-64
2022/12/10 14:43:12;;;;;;;2.85;0.60;;;;;;;;;;5053030;28;20131;-67
2022/12/10 14:45:50;;;;;;;4.95;1.90;;;;;;;;;;5053368;28;20051;-64
2022/12/10 14:48:18;;;;;;;2.63;0.80;;;;;;;;;;5038141;28;20527;-66
2022/12/10 14:50:45;;;;;;;1.85;0.63;;;;;;;;;;5021159;28;20455;-63
2022/12/10 14:53:17;;;;;;;2.00;0.50;;;;;;;;;;5017736;28;20128;-65
2022/12/10 14:55:45;;;;;;;2.40;1.00;;;;;;;;;;5026821;28;20037;-66
2022/12/10 14:58:26;;;;;;;1.70;0.52;;;;;;;;;;5016500;28;20037;-65
2022/12/10 15:00:53;;;;;;;2.00;0.65;;;;;;;;;;5025170;28;20049;-65
2022/12/10 15:03:31;;;;;;;1.05;0.47;;;;;;;;;;5016384;28;20033;-67
2022/12/10 15:06:00;;;;;;;2.60;0.65;;;;;;;;;;5016038;28;20042;-66
2022/12/10 15:08:28;;;;;;;1.92;0.57;;;;;;;;;;5015563;28;20033;-65
2022/12/10 15:10:58;;;;;;;1.13;0.50;;;;;;;;;;5017328;28;20045;-65
2022/12/10 15:13:39;;;;;;;1.77;0.60;;;;;;;;;;5017635;28;20049;-66
2022/12/10 15:16:07;;;;;;;0.90;0.35;;;;;;;;;;5016789;28;20144;-66
2022/12/10 15:18:37;;;;;;;1.35;0.50;;;;;;;;;;5014866;28;20049;-66